Bolu, Turkey
Current Conditions -  °F | °C
As of 1:50 PM on Friday 24 Oct 2014 (Local Time) from LTBQ Reporting Station
Scattered Clouds Scattered Clouds  
Wind Chill: 22°   Ceiling: Unl
Heat Index: 22°   Visibility: 6mi
Dew Point: 15°   Wind: 3mph
Humidity: 64%   Direction: NA
Pressure: 29.91"   Gusts: NA
Location:  40.75°N, 31.61°E
Report Text: LTBQ 241050Z VRB03KT 9999 SCT035 22/15 Q1013 NOSIG
Loading
Personal Weather Stations






























Interactive Weather Map
Tropical Storm Tracking
New forecast layout! Learn more

10-Day Weather Forecast

Advertisements
Track Severe Weather on mobile